Time;durP1;ratioP1;P1;durP2;ratioP2;P2;SDS_P1;SDS_P2;PMS_P1;PMS_P2;Temp;Humidity;BMP_temperature;BMP_pressure;BME280_temperature;BME280_humidity;BME280_pressure;Samples;Min_cycle;Max_cycle;Signal;HPM_P1;HPM_P2
2023/09/09 00:00:09;;;;;;;16.42;8.23;;;19.90;1.00;;;;;;5099537;28;20445;-78
2023/09/09 00:02:35;;;;;;;13.93;7.15;;;19.90;99.90;;;;;;5090349;28;20389;-78
2023/09/09 00:05:00;;;;;;;15.40;8.45;;;19.90;99.90;;;;;;5082361;28;20824;-78
2023/09/09 00:07:26;;;;;;;14.75;7.53;;;19.80;99.90;;;;;;5072679;28;20399;-79
2023/09/09 00:09:51;;;;;;;13.80;7.73;;;19.70;1.00;;;;;;5069998;28;20469;-79
2023/09/09 00:12:17;;;;;;;17.77;7.60;;;19.70;1.00;;;;;;5058523;28;20386;-79
2023/09/09 00:14:42;;;;;;;13.93;7.47;;;19.60;1.00;;;;;;5050282;28;20733;-79
2023/09/09 00:17:08;;;;;;;13.60;7.40;;;19.60;1.00;;;;;;5050596;28;20405;-79
2023/09/09 00:19:35;;;;;;;19.23;8.40;;;19.70;1.00;;;;;;5049818;28;20400;-78
2023/09/09 00:22:00;;;;;;;16.60;7.90;;;19.70;1.00;;;;;;5049398;28;20497;-79
2023/09/09 00:24:26;;;;;;;13.65;6.97;;;19.60;1.00;;;;;;5034533;28;20506;-79
2023/09/09 00:26:51;;;;;;;13.05;6.70;;;19.40;1.00;;;;;;5029560;28;20399;-79
2023/09/09 00:29:17;;;;;;;15.70;7.77;;;19.30;1.00;;;;;;5029473;28;20422;-76
2023/09/09 00:31:43;;;;;;;14.97;8.17;;;19.10;1.00;;;;;;5028772;28;20478;-76
2023/09/09 00:34:08;;;;;;;12.53;6.63;;;19.00;1.00;;;;;;5030138;28;20441;-76
2023/09/09 00:36:34;;;;;;;16.70;8.90;;;18.90;1.00;;;;;;5029791;28;20391;-76
2023/09/09 00:39:02;;;;;;;14.03;7.00;;;18.80;1.00;;;;;;5030456;28;20482;-77
2023/09/09 00:41:28;;;;;;;14.70;7.30;;;18.90;1.00;;;;;;5012715;28;20739;-77
2023/09/09 00:43:53;;;;;;;15.13;7.83;;;18.90;1.00;;;;;;5012408;28;20406;-77
2023/09/09 00:46:19;;;;;;;15.85;8.55;;;19.00;1.00;;;;;;5029067;28;20448;-77
2023/09/09 00:48:45;;;;;;;20.90;8.90;;;19.00;1.00;;;;;;5028748;28;20384;-77
2023/09/09 00:51:12;;;;;;;15.88;8.20;;;19.00;1.00;;;;;;5029219;28;20402;-77
2023/09/09 00:53:39;;;;;;;18.40;7.27;;;19.10;1.00;;;;;;5029362;28;20410;-77
2023/09/09 00:56:05;;;;;;;14.50;7.53;;;19.10;1.00;;;;;;5028900;28;20406;-77
2023/09/09 00:58:31;;;;;;;16.13;7.25;;;19.10;1.00;;;;;;5029512;28;20414;-77
2023/09/09 01:00:58;;;;;;;16.07;8.40;;;19.10;1.00;;;;;;5011497;28;20399;-77
2023/09/09 01:03:24;;;;;;;15.90;8.20;;;19.10;1.00;;;;;;5028849;28;20382;-77
2023/09/09 01:05:50;;;;;;;15.35;7.78;;;19.10;1.00;;;;;;5029143;28;20474;-77
2023/09/09 01:08:29;;;;;;;16.00;8.05;;;19.10;1.00;;;;;;5011443;28;20490;-77
2023/09/09 01:10:55;;;;;;;18.75;8.75;;;19.00;1.00;;;;;;5029111;28;20476;-77
2023/09/09 01:13:21;;;;;;;15.82;7.07;;;19.00;1.00;;;;;;5028727;28;20402;-77
2023/09/09 01:15:47;;;;;;;14.35;7.43;;;19.00;1.00;;;;;;5028945;28;20756;-77
2023/09/09 01:18:13;;;;;;;17.25;8.20;;;19.10;1.00;;;;;;5028719;28;20403;-77
2023/09/09 01:20:43;;;;;;;15.60;8.45;;;19.20;1.00;;;;;;5029395;28;20993;-77
2023/09/09 01:23:08;;;;;;;16.77;8.37;;;19.20;1.00;;;;;;5039001;28;20441;-77
2023/09/09 01:25:34;;;;;;;19.75;8.80;;;19.10;1.00;;;;;;5068661;28;20433;-77
2023/09/09 01:27:59;;;;;;;16.52;7.57;;;19.10;1.00;;;;;;5068594;28;20391;-77
2023/09/09 01:30:25;;;;;;;23.55;8.27;;;19.10;1.00;;;;;;5050776;28;20869;-77
2023/09/09 01:32:50;;;;;;;17.97;7.77;;;19.10;1.00;;;;;;5030862;28;20896;-77
2023/09/09 01:35:16;;;;;;;15.60;8.43;;;19.00;1.00;;;;;;5048938;28;20452;-77
2023/09/09 01:37:41;;;;;;;21.50;8.40;;;19.00;1.00;;;;;;5031166;28;20537;-78
2023/09/09 01:40:10;;;;;;;17.88;8.43;;;18.90;1.00;;;;;;5056230;28;20746;-77
2023/09/09 01:42:37;;;;;;;15.70;8.20;;;19.00;1.00;;;;;;5069872;28;20436;-77
2023/09/09 01:45:03;;;;;;;17.67;9.10;;;19.00;1.00;;;;;;5055269;28;20383;-77
2023/09/09 01:47:29;;;;;;;17.15;9.20;;;19.10;1.00;;;;;;5073351;28;20842;-77
2023/09/09 01:49:54;;;;;;;17.15;8.98;;;19.20;1.00;;;;;;5075331;28;20498;-77
2023/09/09 01:52:20;;;;;;;15.45;8.40;;;19.20;1.00;;;;;;5074521;28;20570;-77
2023/09/09 01:54:45;;;;;;;17.77;8.67;;;19.20;1.00;;;;;;5073980;28;20384;-77
2023/09/09 01:57:11;;;;;;;15.97;9.13;;;19.10;1.00;;;;;;5051100;28;20731;-77
2023/09/09 01:59:36;;;;;;;16.20;8.70;;;19.10;1.00;;;;;;5036845;28;20401;-77
2023/09/09 02:02:03;;;;;;;18.27;8.67;;;19.00;1.00;;;;;;5055485;28;20399;-77
2023/09/09 02:04:29;;;;;;;17.85;7.90;;;18.90;1.00;;;;;;5038478;28;20799;-77
2023/09/09 02:06:54;;;;;;;16.57;8.83;;;18.90;1.00;;;;;;5068888;28;20406;-77
2023/09/09 02:09:20;;;;;;;17.50;8.83;;;18.90;1.00;;;;;;5074717;28;20470;-77
2023/09/09 02:11:45;;;;;;;17.57;8.40;;;18.80;1.00;;;;;;5074534;28;20734;-77
2023/09/09 02:14:11;;;;;;;15.10;8.00;;;18.90;1.00;;;;;;5075579;28;20455;-77
2023/09/09 02:16:36;;;;;;;18.87;9.33;;;18.90;1.00;;;;;;5058360;28;20400;-77
2023/09/09 02:19:02;;;;;;;15.53;7.90;;;18.80;1.00;;;;;;5063201;28;20400;-77
2023/09/09 02:21:29;;;;;;;16.95;8.50;;;18.90;1.00;;;;;;5081320;28;20401;-78
2023/09/09 02:23:54;;;;;;;16.45;8.85;;;18.90;1.00;;;;;;5081725;28;20424;-78
2023/09/09 02:26:20;;;;;;;19.07;8.63;;;18.80;1.00;;;;;;5083679;28;20498;-77
2023/09/09 02:28:46;;;;;;;19.20;9.10;;;18.80;1.00;;;;;;5066372;28;20427;-78
2023/09/09 02:31:11;;;;;;;17.55;8.90;;;18.80;5.90;;;;;;5078825;28;20401;-77
2023/09/09 02:33:37;;;;;;;16.60;8.40;;;18.80;4.30;;;;;;5062036;28;20381;-78
2023/09/09 02:36:03;;;;;;;16.50;8.57;;;18.80;14.50;;;;;;5059913;28;20388;-77
2023/09/09 02:38:28;;;;;;;16.23;8.50;;;18.70;21.80;;;;;;5061765;28;20453;-77
2023/09/09 02:40:54;;;;;;;18.37;8.90;;;18.80;22.80;;;;;;5060652;28;20864;-77
2023/09/09 02:43:19;;;;;;;16.90;8.43;;;18.80;30.00;;;;;;5061604;28;20397;-77
2023/09/09 02:45:45;;;;;;;17.52;8.43;;;18.80;26.50;;;;;;5056545;28;20405;-78
2023/09/09 02:48:10;;;;;;;18.13;8.73;;;18.80;25.80;;;;;;5062038;28;20406;-77
2023/09/09 02:50:36;;;;;;;19.40;9.50;;;18.80;22.70;;;;;;5077032;28;20514;-77
2023/09/09 02:53:01;;;;;;;17.03;9.07;;;18.80;13.70;;;;;;5074132;28;20456;-77
2023/09/09 02:55:27;;;;;;;16.10;9.10;;;18.90;18.50;;;;;;5072529;28;20384;-78
2023/09/09 02:57:53;;;;;;;16.73;8.80;;;18.90;20.60;;;;;;5073069;28;20391;-78
2023/09/09 03:00:18;;;;;;;17.67;8.20;;;18.90;9.60;;;;;;5072813;28;20392;-77
2023/09/09 03:02:44;;;;;;;18.27;8.40;;;18.90;3.10;;;;;;5072474;28;20390;-77
2023/09/09 03:05:11;;;;;;;16.50;8.97;;;18.90;1.00;;;;;;5072193;28;20388;-78
2023/09/09 03:07:37;;;;;;;16.67;8.50;;;18.90;1.00;;;;;;5072985;28;20879;-78
2023/09/09 03:10:04;;;;;;;19.17;9.32;;;19.00;1.00;;;;;;5072617;28;20412;-78
2023/09/09 03:12:30;;;;;;;16.40;8.82;;;18.90;1.00;;;;;;5072734;28;20383;-77
2023/09/09 03:14:55;;;;;;;16.90;8.50;;;18.90;1.00;;;;;;5053810;28;20440;-77
2023/09/09 03:17:21;;;;;;;15.57;7.80;;;18.80;1.00;;;;;;5071824;28;20390;-77
2023/09/09 03:19:46;;;;;;;16.08;8.70;;;18.80;1.00;;;;;;5072474;28;20376;-78
2023/09/09 03:22:12;;;;;;;15.10;7.53;;;18.80;1.00;;;;;;5066285;28;20559;-78
2023/09/09 03:24:37;;;;;;;13.00;7.95;;;18.80;1.00;;;;;;5035331;28;20395;-78
2023/09/09 03:27:03;;;;;;;14.97;8.70;;;18.70;1.00;;;;;;5031726;28;20513;-78
2023/09/09 03:29:29;;;;;;;18.90;9.03;;;18.70;1.00;;;;;;5031303;28;20414;-78
2023/09/09 03:31:54;;;;;;;17.90;8.50;;;18.60;1.00;;;;;;5032815;28;20391;-77
2023/09/09 03:34:20;;;;;;;17.17;9.65;;;18.60;1.00;;;;;;5032063;28;20395;-77
2023/09/09 03:36:46;;;;;;;16.85;9.57;;;18.60;1.00;;;;;;5031618;28;20391;-77
2023/09/09 03:39:11;;;;;;;13.73;7.90;;;18.60;1.00;;;;;;5036834;28;20394;-78
2023/09/09 03:41:39;;;;;;;16.73;8.87;;;18.60;1.00;;;;;;5052085;28;20401;-77
2023/09/09 03:44:05;;;;;;;18.05;8.27;;;18.60;1.00;;;;;;5050990;28;20378;-77
2023/09/09 03:46:30;;;;;;;13.65;7.55;;;18.60;1.00;;;;;;5050848;28;20515;-77
2023/09/09 03:48:56;;;;;;;16.67;7.73;;;18.60;1.00;;;;;;5051052;28;20404;-77
2023/09/09 03:51:21;;;;;;;15.10;7.77;;;18.60;1.00;;;;;;5050982;28;20393;-77
2023/09/09 03:53:47;;;;;;;18.63;7.43;;;18.60;1.00;;;;;;5050335;28;20398;-77
2023/09/09 03:56:12;;;;;;;20.60;8.00;;;18.50;1.00;;;;;;5044635;28;20394;-77
2023/09/09 03:58:38;;;;;;;19.52;9.70;;;18.50;1.00;;;;;;5031321;28;20398;-77
2023/09/09 04:01:08;;;;;;;16.00;8.35;;;18.60;1.00;;;;;;5030891;28;20387;-77
2023/09/09 04:03:35;;;;;;;17.73;9.80;;;18.60;1.00;;;;;;5030165;28;20408;-77
2023/09/09 04:06:04;;;;;;;19.50;9.70;;;18.60;1.00;;;;;;5029997;28;20435;-77
2023/09/09 04:08:33;;;;;;;16.45;8.77;;;18.60;1.00;;;;;;5045196;28;20404;-77
2023/09/09 04:10:59;;;;;;;18.25;9.60;;;18.60;1.00;;;;;;5049169;28;20504;-77
2023/09/09 04:13:25;;;;;;;19.65;9.60;;;18.50;12.80;;;;;;5033133;28;20403;-77
2023/09/09 04:15:56;;;;;;;17.70;9.10;;;18.40;24.60;;;;;;5049395;28;20469;-76
2023/09/09 04:18:22;;;;;;;18.95;8.65;;;18.30;32.10;;;;;;5049574;28;20393;-77
2023/09/09 04:20:48;;;;;;;20.67;8.98;;;18.30;36.40;;;;;;5049690;28;20412;-77
2023/09/09 04:23:13;;;;;;;19.98;9.93;;;18.40;29.50;;;;;;5050679;28;20407;-77
2023/09/09 04:25:39;;;;;;;17.10;8.83;;;18.30;27.20;;;;;;5064076;28;20415;-77
2023/09/09 04:28:05;;;;;;;21.27;9.77;;;18.30;39.60;;;;;;5068815;28;20383;-77
2023/09/09 04:30:31;;;;;;;17.20;9.07;;;18.20;54.90;;;;;;5060792;28;20432;-77
2023/09/09 04:32:56;;;;;;;18.53;10.03;;;18.20;52.50;;;;;;5060638;28;20384;-77
2023/09/09 04:35:22;;;;;;;18.85;9.15;;;18.20;56.90;;;;;;5069413;28;20392;-77
2023/09/09 04:37:50;;;;;;;16.80;8.63;;;18.30;43.80;;;;;;5069321;28;20822;-77
2023/09/09 04:40:15;;;;;;;14.32;8.23;;;18.30;43.70;;;;;;5068594;28;20891;-76
2023/09/09 04:42:42;;;;;;;17.75;8.45;;;18.30;48.90;;;;;;5051406;28;20396;-77
2023/09/09 04:45:08;;;;;;;16.92;8.93;;;18.30;58.20;;;;;;5072107;28;20433;-77
2023/09/09 04:47:35;;;;;;;17.23;9.35;;;18.30;59.50;;;;;;5061487;28;20393;-77
2023/09/09 04:50:00;;;;;;;16.17;8.57;;;18.20;36.10;;;;;;5057155;28;20426;-76
2023/09/09 04:52:26;;;;;;;21.02;8.95;;;18.20;46.40;;;;;;5063361;28;20396;-77
2023/09/09 04:54:52;;;;;;;17.67;8.00;;;18.20;30.00;;;;;;5044400;28;20400;-77
2023/09/09 04:57:17;;;;;;;18.23;8.90;;;18.20;16.50;;;;;;5069095;28;20383;-77
2023/09/09 04:59:43;;;;;;;15.03;8.00;;;18.30;1.10;;;;;;5051117;28;20413;-77
2023/09/09 05:02:08;;;;;;;14.63;8.57;;;18.20;1.00;;;;;;5059579;28;20748;-77
2023/09/09 05:04:34;;;;;;;16.30;8.00;;;18.20;1.00;;;;;;5060185;28;20381;-77
2023/09/09 05:07:00;;;;;;;16.27;8.90;;;18.20;1.00;;;;;;5054990;28;20411;-77
2023/09/09 05:09:27;;;;;;;19.25;9.60;;;18.10;1.00;;;;;;5069221;28;20822;-77
2023/09/09 05:11:52;;;;;;;16.75;9.13;;;18.20;10.90;;;;;;5067973;28;20408;-77
2023/09/09 05:14:18;;;;;;;17.97;8.97;;;18.30;10.80;;;;;;5068541;28;20391;-77
2023/09/09 05:16:43;;;;;;;15.83;8.20;;;18.30;3.30;;;;;;5054200;28;20484;-77
2023/09/09 05:19:09;;;;;;;15.73;9.00;;;18.40;7.20;;;;;;5037594;28;20467;-77
2023/09/09 05:21:34;;;;;;;17.77;9.83;;;18.50;1.10;;;;;;5072973;28;20451;-77
2023/09/09 05:24:00;;;;;;;15.27;8.60;;;18.50;1.00;;;;;;5056807;28;20464;-77
2023/09/09 05:26:25;;;;;;;15.45;8.40;;;18.60;1.00;;;;;;5071391;28;20380;-77
2023/09/09 05:28:51;;;;;;;17.17;8.48;;;18.70;1.00;;;;;;5065852;28;20393;-77
2023/09/09 05:31:17;;;;;;;15.50;9.00;;;18.70;1.00;;;;;;5056892;28;20400;-77
2023/09/09 05:33:42;;;;;;;18.40;8.67;;;18.80;1.00;;;;;;5071567;28;20392;-77
2023/09/09 05:36:08;;;;;;;20.87;9.40;;;18.90;1.00;;;;;;5060678;28;20824;-78
2023/09/09 05:38:35;;;;;;;17.73;8.52;;;19.00;1.00;;;;;;5068107;28;20415;-77
2023/09/09 05:41:37;;;;;;;14.18;7.70;;;19.10;1.00;;;;;;5055691;28;20413;-77
2023/09/09 05:44:03;;;;;;;18.13;9.20;;;19.20;1.00;;;;;;5067245;28;20385;-77
2023/09/09 05:46:29;;;;;;;17.88;8.27;;;19.40;1.00;;;;;;5075401;28;21135;-78
2023/09/09 05:48:54;;;;;;;15.38;8.38;;;19.30;1.00;;;;;;5065081;28;20891;-77
2023/09/09 05:51:20;;;;;;;17.87;8.37;;;19.40;1.00;;;;;;5059599;28;20419;-77
2023/09/09 05:53:47;;;;;;;15.93;8.87;;;19.40;1.00;;;;;;5075796;28;20920;-78
2023/09/09 05:56:13;;;;;;;17.42;9.60;;;19.50;1.00;;;;;;5065593;28;20380;-77
2023/09/09 05:58:39;;;;;;;16.37;8.00;;;19.40;1.00;;;;;;5076895;28;20407;-77
2023/09/09 06:01:05;;;;;;;15.55;8.30;;;19.50;1.00;;;;;;5070795;28;20401;-78
2023/09/09 06:03:32;;;;;;;14.27;8.13;;;19.60;1.00;;;;;;5075577;28;20398;-77
2023/09/09 06:05:57;;;;;;;16.00;9.57;;;19.80;1.00;;;;;;5081771;28;20906;-78
2023/09/09 06:08:23;;;;;;;14.35;8.35;;;20.60;1.00;;;;;;5083561;28;20391;-77
2023/09/09 06:10:49;;;;;;;14.77;7.60;;;22.30;31.80;;;;;;5070255;28;20477;-78
2023/09/09 06:13:14;;;;;;;14.80;8.20;;;23.80;99.90;;;;;;5080380;28;20479;-79
2023/09/09 06:15:40;;;;;;;13.50;7.67;;;25.30;1.00;;;;;;5083935;28;20398;-79
2023/09/09 06:18:07;;;;;;;15.93;8.02;;;26.40;1.00;;;;;;5060504;28;20438;-80
2023/09/09 06:20:33;;;;;;;14.00;7.93;;;27.60;1.00;;;;;;5049895;28;20412;-79
2023/09/09 06:22:58;;;;;;;19.00;7.63;;;28.40;1.00;;;;;;5062850;28;20405;-79
2023/09/09 06:25:24;;;;;;;14.80;7.37;;;28.30;1.00;;;;;;5063886;28;20964;-79
2023/09/09 06:27:50;;;;;;;12.50;6.93;;;28.50;1.00;;;;;;5064804;28;20462;-77
2023/09/09 06:30:15;;;;;;;15.98;8.60;;;29.10;1.00;;;;;;5057470;28;20598;-78
2023/09/09 06:32:41;;;;;;;14.10;8.20;;;29.90;1.00;;;;;;5062869;28;20561;-78
2023/09/09 06:35:07;;;;;;;15.20;8.60;;;30.40;99.90;;;;;;5061393;28;20561;-80
2023/09/09 06:37:33;;;;;;;14.27;7.85;;;31.50;99.90;;;;;;5062389;28;21081;-80
2023/09/09 06:40:07;;;;;;;14.37;7.70;;;31.30;99.90;;;;;;5067759;28;20431;-79
2023/09/09 06:42:33;;;;;;;13.45;7.60;;;30.90;99.90;;;;;;5060405;28;20397;-79
2023/09/09 06:44:59;;;;;;;15.50;8.40;;;30.90;99.90;;;;;;5052543;28;20923;-79
2023/09/09 06:47:24;;;;;;;17.67;8.55;;;31.80;99.90;;;;;;5065903;28;20389;-80
2023/09/09 06:49:50;;;;;;;15.10;8.20;;;32.10;99.90;;;;;;5061631;28;20429;-79
2023/09/09 06:52:16;;;;;;;14.63;8.30;;;33.20;99.90;;;;;;5069124;28;20414;-80
2023/09/09 06:54:43;;;;;;;13.33;7.73;;;32.90;99.90;;;;;;5067912;28;20405;-79
2023/09/09 06:57:10;;;;;;;14.17;8.47;;;34.00;99.90;;;;;;5069245;28;20418;-79
2023/09/09 06:59:37;;;;;;;14.00;7.60;;;34.80;99.90;;;;;;5073584;28;20810;-78
2023/09/09 07:02:03;;;;;;;14.33;8.23;;;33.90;99.90;;;;;;5085534;28;20750;-79
2023/09/09 07:04:29;;;;;;;14.10;8.00;;;33.00;99.90;;;;;;5063126;28;20437;-79
2023/09/09 07:06:54;;;;;;;13.93;7.50;;;32.70;99.90;;;;;;5062809;28;20471;-79
2023/09/09 07:09:21;;;;;;;17.10;8.32;;;32.20;99.90;;;;;;5063248;28;20440;-79
2023/09/09 07:11:46;;;;;;;12.98;7.60;;;32.40;99.90;;;;;;5047358;28;20404;-80
2023/09/09 07:14:12;;;;;;;14.02;7.82;;;32.00;99.90;;;;;;5063520;28;20471;-80
2023/09/09 07:16:37;;;;;;;13.60;7.40;;;31.90;99.90;;;;;;5063145;28;20885;-80
2023/09/09 07:19:03;;;;;;;13.93;8.10;;;32.20;99.90;;;;;;5074165;28;20410;-79
2023/09/09 07:21:28;;;;;;;13.63;7.32;;;32.40;99.90;;;;;;5067659;28;20736;-79
2023/09/09 07:23:54;;;;;;;14.37;7.10;;;32.50;99.90;;;;;;5067480;28;20420;-79
2023/09/09 07:26:19;;;;;;;15.60;8.20;;;32.80;99.90;;;;;;5049558;28;20419;-79
2023/09/09 07:28:46;;;;;;;14.87;8.23;;;33.30;99.90;;;;;;5073806;28;20392;-79
2023/09/09 07:31:11;;;;;;;13.98;7.57;;;33.10;99.90;;;;;;5068290;28;20892;-79
2023/09/09 07:33:37;;;;;;;11.83;6.30;;;33.30;99.90;;;;;;5062944;28;20432;-80
2023/09/09 07:36:02;;;;;;;12.83;6.40;;;33.60;99.90;;;;;;5066940;28;20385;-79
2023/09/09 07:38:28;;;;;;;12.30;7.15;;;34.30;99.90;;;;;;5062467;28;20400;-77
2023/09/09 07:40:58;;;;;;;13.77;6.80;;;35.30;99.90;;;;;;5065261;28;20385;-78
2023/09/09 07:43:24;;;;;;;11.88;6.63;;;35.40;99.90;;;;;;5047450;28;20397;-78
2023/09/09 07:45:51;;;;;;;12.68;6.50;;;35.60;99.90;;;;;;5051191;28;20464;-78
2023/09/09 07:48:21;;;;;;;12.30;7.03;;;35.80;99.90;;;;;;5062658;28;20395;-78
2023/09/09 07:50:51;;;;;;;12.80;6.90;;;35.40;99.90;;;;;;5060938;28;20422;-78
2023/09/09 07:53:17;;;;;;;11.55;7.05;;;35.00;99.90;;;;;;5065047;28;20430;-78
2023/09/09 07:55:42;;;;;;;11.80;6.47;;;35.70;99.90;;;;;;5037906;28;20476;-79
2023/09/09 07:58:08;;;;;;;12.73;6.60;;;35.50;99.90;;;;;;5063849;28;20837;-78
2023/09/09 08:00:36;;;;;;;10.50;6.00;;;35.30;99.90;;;;;;5058963;28;20397;-79
2023/09/09 08:03:06;;;;;;;12.60;6.40;;;35.20;99.90;;;;;;5036884;28;20964;-78
2023/09/09 08:05:38;;;;;;;12.60;6.65;;;35.50;99.90;;;;;;5061191;28;20390;-79
2023/09/09 08:08:05;;;;;;;11.20;6.20;;;36.50;99.90;;;;;;5070576;28;20460;-80
2023/09/09 08:10:31;;;;;;;12.93;7.30;;;36.90;99.90;;;;;;5050133;28;20421;-81
2023/09/09 08:12:58;;;;;;;13.17;5.97;;;36.40;99.90;;;;;;5047161;28;20405;-80
2023/09/09 08:15:25;;;;;;;11.50;7.00;;;36.10;99.90;;;;;;5043007;28;20452;-80
2023/09/09 08:17:51;;;;;;;12.60;6.60;;;36.50;99.90;;;;;;5063028;28;20487;-80
2023/09/09 08:20:17;;;;;;;11.40;6.10;;;37.30;99.90;;;;;;5063469;28;20384;-79
2023/09/09 08:22:43;;;;;;;10.85;5.70;;;37.70;99.90;;;;;;5059119;28;20404;-79
2023/09/09 08:25:08;;;;;;;10.83;6.43;;;37.00;99.90;;;;;;5032627;28;20419;-78
2023/09/09 08:27:34;;;;;;;11.48;6.68;;;36.80;99.90;;;;;;5017648;28;20411;-78
2023/09/09 08:29:59;;;;;;;11.27;6.60;;;36.50;99.90;;;;;;5036403;28;20415;-78
2023/09/09 08:32:25;;;;;;;10.80;6.25;;;36.60;99.90;;;;;;5032588;28;20471;-78
2023/09/09 08:34:52;;;;;;;12.43;6.70;;;36.20;99.90;;;;;;5033370;28;20401;-78
2023/09/09 08:37:18;;;;;;;13.48;6.68;;;36.40;99.90;;;;;;5049416;28;20795;-77
2023/09/09 08:39:44;;;;;;;12.93;6.87;;;36.40;99.90;;;;;;5031681;28;20415;-78
2023/09/09 08:42:23;;;;;;;11.15;6.28;;;35.70;99.90;;;;;;5031824;28;20986;-77
2023/09/09 08:45:36;;;;;;;13.95;6.60;;;36.30;99.90;;;;;;5031439;28;20402;-77
2023/09/09 08:48:09;;;;;;;11.23;6.70;;;36.20;99.90;;;;;;4958929;28;20395;-78
2023/09/09 08:50:38;;;;;;;13.40;6.72;;;35.50;99.90;;;;;;5029503;28;20519;-78
2023/09/09 08:53:05;;;;;;;13.00;6.88;;;36.20;99.90;;;;;;5028659;28;20399;-77
2023/09/09 08:55:31;;;;;;;12.82;7.03;;;36.20;99.90;;;;;;5012668;28;20391;-77
2023/09/09 08:57:57;;;;;;;12.95;6.85;;;36.60;99.90;;;;;;5029596;28;20743;-78
2023/09/09 09:00:29;;;;;;;10.77;5.68;;;36.90;99.90;;;;;;5031402;28;20391;-78
2023/09/09 09:02:56;;;;;;;11.80;6.63;;;36.80;99.90;;;;;;5036831;28;20423;-78
2023/09/09 09:05:22;;;;;;;11.77;6.13;;;37.30;99.90;;;;;;5029465;28;20925;-78
2023/09/09 09:07:47;;;;;;;11.55;6.70;;;36.80;99.90;;;;;;5029748;28;20474;-78
2023/09/09 09:10:13;;;;;;;13.80;6.63;;;36.20;99.90;;;;;;5029043;28;20426;-79
2023/09/09 09:12:42;;;;;;;12.27;6.18;;;35.60;99.90;;;;;;5029969;28;20873;-78
2023/09/09 09:15:10;;;;;;;12.13;6.68;;;36.20;99.90;;;;;;5029686;28;20399;-78
2023/09/09 09:17:39;;;;;;;10.18;5.85;;;36.30;99.90;;;;;;5029547;28;20802;-78
2023/09/09 09:20:07;;;;;;;11.50;6.40;;;37.00;99.90;;;;;;5042485;28;20444;-78
2023/09/09 09:22:34;;;;;;;14.70;7.50;;;38.00;99.90;;;;;;5049672;28;20429;-78
2023/09/09 09:24:59;;;;;;;14.18;6.80;;;38.20;99.90;;;;;;5068938;28;20532;-78
2023/09/09 09:27:30;;;;;;;11.80;6.65;;;38.30;99.90;;;;;;5051404;28;20420;-78
2023/09/09 09:29:55;;;;;;;14.13;6.40;;;38.60;99.90;;;;;;5068788;28;20419;-78
2023/09/09 09:32:21;;;;;;;12.35;6.00;;;39.00;99.90;;;;;;5063316;28;20489;-78
2023/09/09 09:34:49;;;;;;;12.07;5.40;;;39.20;99.90;;;;;;5087937;28;20807;-78
2023/09/09 09:37:17;;;;;;;12.65;6.40;;;38.70;99.90;;;;;;5097753;28;20374;-78
2023/09/09 09:39:45;;;;;;;12.77;6.90;;;39.10;99.90;;;;;;5095244;28;20395;-78
2023/09/09 09:42:12;;;;;;;11.38;6.10;;;38.80;99.90;;;;;;5068969;28;20394;-78
2023/09/09 09:44:37;;;;;;;11.60;6.45;;;39.40;99.90;;;;;;5061068;28;20392;-78
2023/09/09 09:47:08;;;;;;;11.70;6.07;;;39.60;99.90;;;;;;5071971;28;20406;-78
2023/09/09 09:49:44;;;;;;;12.88;6.57;;;39.30;99.90;;;;;;5069621;28;20558;-78
2023/09/09 09:52:21;;;;;;;9.40;5.63;;;39.10;99.90;;;;;;5069547;28;20403;-78
2023/09/09 09:54:51;;;;;;;11.50;6.13;;;39.20;99.90;;;;;;5063196;28;20427;-78
2023/09/09 09:57:20;;;;;;;11.23;5.95;;;40.10;99.90;;;;;;5068585;28;20392;-78
2023/09/09 09:59:46;;;;;;;10.30;5.70;;;40.30;99.90;;;;;;5068299;28;20908;-78
2023/09/09 10:02:14;;;;;;;11.30;5.70;;;40.20;99.90;;;;;;5049177;28;20401;-78
2023/09/09 10:04:42;;;;;;;12.32;5.93;;;40.00;99.90;;;;;;5050670;28;20389;-78
2023/09/09 10:07:11;;;;;;;10.67;5.60;;;40.20;99.90;;;;;;5053435;28;20388;-78
2023/09/09 10:09:58;;;;;;;10.35;5.80;;;39.80;99.90;;;;;;5053441;28;20424;-78
2023/09/09 10:12:40;;;;;;;11.68;6.28;;;39.20;99.90;;;;;;5034757;28;20408;-78
2023/09/09 10:15:06;;;;;;;11.57;6.10;;;39.40;99.90;;;;;;5052990;28;20483;-78
2023/09/09 10:17:32;;;;;;;9.93;5.13;;;40.00;99.90;;;;;;5034458;28;20939;-78
2023/09/09 10:20:04;;;;;;;11.82;5.93;;;40.30;99.90;;;;;;5034758;28;20401;-78
2023/09/09 10:22:31;;;;;;;10.00;4.90;;;40.00;99.90;;;;;;5034431;28;20764;-78
2023/09/09 10:24:58;;;;;;;10.02;6.00;;;39.90;99.90;;;;;;5034072;28;20466;-78
2023/09/09 10:27:24;;;;;;;9.80;5.15;;;40.60;99.90;;;;;;5063571;28;20375;-78
2023/09/09 10:29:52;;;;;;;10.00;5.45;;;41.00;99.90;;;;;;5071758;28;20514;-78
2023/09/09 10:32:20;;;;;;;14.88;10.85;;;40.80;99.90;;;;;;5073377;28;20387;-78
2023/09/09 10:34:46;;;;;;;9.70;5.10;;;40.40;99.90;;;;;;5053805;28;20754;-77
2023/09/09 10:37:14;;;;;;;8.85;4.57;;;39.10;99.90;;;;;;5071846;28;20792;-77
2023/09/09 10:39:40;;;;;;;10.40;4.80;;;38.20;99.90;;;;;;5056591;28;20395;-78
2023/09/09 10:42:07;;;;;;;9.50;5.33;;;38.00;99.90;;;;;;5091900;28;20389;-78
2023/09/09 10:44:33;;;;;;;9.13;4.78;;;37.90;99.90;;;;;;5074346;28;20459;-78
2023/09/09 10:46:59;;;;;;;10.85;5.20;;;37.50;99.90;;;;;;5052221;28;20401;-78
2023/09/09 10:49:27;;;;;;;10.43;5.30;;;37.20;99.90;;;;;;5067450;28;20403;-78
2023/09/09 10:51:52;;;;;;;11.80;4.95;;;37.50;99.90;;;;;;5051336;28;20883;-77
2023/09/09 10:54:19;;;;;;;10.15;4.90;;;36.80;99.90;;;;;;5051162;28;20385;-77
2023/09/09 10:56:47;;;;;;;10.35;4.60;;;36.70;99.90;;;;;;5050909;28;20382;-77
2023/09/09 10:59:17;;;;;;;11.07;5.50;;;36.70;99.90;;;;;;5051202;28;20390;-77
2023/09/09 11:01:43;;;;;;;10.13;4.93;;;37.40;99.90;;;;;;5061414;28;20388;-77
2023/09/09 11:04:18;;;;;;;10.75;4.55;;;38.40;99.90;;;;;;5071662;28;20390;-77
2023/09/09 11:07:08;;;;;;;11.35;4.60;;;38.10;99.90;;;;;;5070951;28;20396;-77
2023/09/09 11:09:36;;;;;;;10.45;4.95;;;37.50;99.90;;;;;;5072158;28;20414;-78
2023/09/09 11:12:12;;;;;;;9.77;5.10;;;37.00;99.90;;;;;;5057737;28;20420;-77
2023/09/09 11:14:56;;;;;;;11.87;5.50;;;37.30;99.90;;;;;;5078966;28;20402;-77
2023/09/09 11:17:22;;;;;;;12.23;5.33;;;37.90;99.90;;;;;;5076131;28;20461;-76
2023/09/09 11:19:49;;;;;;;12.23;6.07;;;37.70;99.90;;;;;;5051558;28;20393;-77
2023/09/09 11:22:16;;;;;;;9.37;5.33;;;37.10;99.90;;;;;;5052050;28;20496;-76
2023/09/09 11:24:42;;;;;;;9.48;4.53;;;36.20;99.90;;;;;;5050922;28;20417;-77
2023/09/09 11:27:09;;;;;;;10.73;5.43;;;35.80;99.90;;;;;;5051186;28;20756;-78
2023/09/09 11:29:34;;;;;;;9.35;4.78;;;35.00;99.90;;;;;;5051236;28;20417;-78
2023/09/09 11:32:00;;;;;;;9.30;4.27;;;34.60;99.90;;;;;;5069541;28;20743;-78
2023/09/09 11:34:33;;;;;;;10.20;4.40;;;34.00;99.90;;;;;;5070706;28;20814;-78
2023/09/09 11:37:03;;;;;;;8.95;4.10;;;33.90;99.90;;;;;;5051506;28;20431;-79
2023/09/09 11:39:28;;;;;;;11.90;4.90;;;34.10;99.90;;;;;;5068262;28;20513;-78
2023/09/09 11:41:54;;;;;;;8.43;4.03;;;34.10;99.90;;;;;;5090628;28;20417;-78
2023/09/09 11:44:19;;;;;;;10.35;4.53;;;34.40;99.90;;;;;;5079284;28;20798;-78
2023/09/09 11:46:47;;;;;;;8.88;4.03;;;34.70;99.90;;;;;;5071580;28;20395;-79
2023/09/09 11:49:13;;;;;;;10.70;4.25;;;34.80;99.90;;;;;;5071012;28;20881;-79
2023/09/09 11:51:39;;;;;;;10.23;4.75;;;34.40;99.90;;;;;;5069742;28;20544;-79
2023/09/09 11:54:08;;;;;;;9.30;4.72;;;34.30;99.90;;;;;;5050567;28;20922;-78
2023/09/09 11:56:34;;;;;;;10.35;4.45;;;34.40;99.90;;;;;;5050414;28;20438;-78
2023/09/09 11:59:06;;;;;;;10.20;4.50;;;34.20;99.90;;;;;;5050697;28;20381;-78
2023/09/09 12:01:51;;;;;;;11.23;5.00;;;34.10;99.90;;;;;;5050902;28;21014;-78
2023/09/09 12:04:16;;;;;;;13.57;5.20;;;34.00;99.90;;;;;;5050968;28;20868;-78
2023/09/09 12:06:48;;;;;;;10.43;4.90;;;34.00;99.90;;;;;;5036015;28;20405;-78
2023/09/09 12:09:15;;;;;;;11.05;5.18;;;33.70;99.90;;;;;;5048225;28;20730;-78
2023/09/09 12:11:42;;;;;;;12.87;4.53;;;33.60;99.90;;;;;;5060074;28;20395;-78
2023/09/09 12:14:10;;;;;;;12.63;4.90;;;33.60;99.90;;;;;;5070823;28;20414;-78
2023/09/09 12:16:37;;;;;;;9.82;4.82;;;33.40;99.90;;;;;;5059737;28;20389;-78
2023/09/09 12:19:02;;;;;;;11.73;4.40;;;33.40;99.90;;;;;;5050198;28;20496;-78
2023/09/09 12:21:29;;;;;;;10.07;4.45;;;33.70;99.90;;;;;;5050161;28;20475;-78
2023/09/09 12:24:00;;;;;;;10.68;5.30;;;34.00;99.90;;;;;;5032045;28;20488;-77
2023/09/09 12:26:28;;;;;;;9.70;4.53;;;34.00;99.90;;;;;;5058044;28;20384;-78
2023/09/09 12:29:11;;;;;;;11.40;6.00;;;34.10;99.90;;;;;;5070361;28;20396;-78
2023/09/09 12:31:51;;;;;;;11.00;4.70;;;34.10;99.90;;;;;;5070836;28;20477;-78
2023/09/09 12:34:21;;;;;;;8.80;5.05;;;33.40;99.90;;;;;;5070381;28;20379;-78
2023/09/09 12:36:48;;;;;;;9.95;4.20;;;33.10;99.90;;;;;;5070181;28;20414;-78
2023/09/09 12:39:24;;;;;;;12.63;5.30;;;33.20;99.90;;;;;;5069677;28;20406;-77